createdAt,value
2022-07-30T00:01:38.149Z,2.10
2022-07-30T00:04:09.997Z,1.70
2022-07-30T00:06:41.960Z,2.20
2022-07-30T00:09:13.911Z,2.30
2022-07-30T00:11:45.662Z,1.60
2022-07-30T00:14:18.201Z,2.00
2022-07-30T00:16:50.011Z,1.60
2022-07-30T00:19:21.874Z,2.00
2022-07-30T00:21:55.820Z,2.20
2022-07-30T00:24:27.929Z,2.00
2022-07-30T00:27:00.050Z,1.90
2022-07-30T00:29:32.086Z,1.80
2022-07-30T00:32:03.863Z,1.90
2022-07-30T00:34:35.684Z,2.50
2022-07-30T00:37:07.448Z,2.30
2022-07-30T00:39:39.128Z,2.20
2022-07-30T00:42:11.922Z,1.80
2022-07-30T00:44:44.681Z,2.20
2022-07-30T00:47:16.941Z,2.60
2022-07-30T00:49:48.946Z,2.20
2022-07-30T00:52:21.363Z,2.30
2022-07-30T00:54:53.074Z,2.10
2022-07-30T00:57:24.892Z,2.30
2022-07-30T00:59:58.586Z,2.30
2022-07-30T01:02:30.667Z,2.20
2022-07-30T01:05:02.652Z,2.30
2022-07-30T01:07:34.838Z,2.10
2022-07-30T01:10:08.737Z,3.30
2022-07-30T01:12:40.992Z,1.90
2022-07-30T01:15:14.280Z,2.30
2022-07-30T01:17:52.869Z,2.00
2022-07-30T01:20:28.165Z,2.40
2022-07-30T01:23:08.226Z,2.30
2022-07-30T01:25:49.843Z,2.20
2022-07-30T01:28:24.708Z,2.40
2022-07-30T01:30:58.120Z,2.20
2022-07-30T01:33:31.957Z,2.60
2022-07-30T01:36:09.523Z,2.60
2022-07-30T01:38:44.125Z,2.30
2022-07-30T01:41:19.215Z,2.50
2022-07-30T01:43:51.325Z,2.40
2022-07-30T01:46:28.178Z,2.30
2022-07-30T01:49:02.012Z,2.60
2022-07-30T01:51:38.886Z,2.40
2022-07-30T01:54:13.571Z,2.60
2022-07-30T01:56:47.091Z,2.40
2022-07-30T01:59:21.945Z,2.40
2022-07-30T02:01:53.717Z,2.70
2022-07-30T02:04:25.528Z,3.00
2022-07-30T02:07:04.299Z,3.60
2022-07-30T02:09:46.982Z,2.90
2022-07-30T02:15:13.343Z,2.50
2022-07-30T02:17:51.905Z,2.80
2022-07-30T02:20:28.348Z,2.50
2022-07-30T02:23:03.738Z,2.40
2022-07-30T02:25:39.824Z,2.60
2022-07-30T02:28:14.328Z,2.70
2022-07-30T02:30:51.390Z,2.30
2022-07-30T02:33:28.601Z,2.40
2022-07-30T02:36:01.847Z,2.90
2022-07-30T02:38:35.728Z,3.20
2022-07-30T02:41:09.091Z,2.90
2022-07-30T02:43:44.361Z,3.00
2022-07-30T02:46:18.096Z,2.80
2022-07-30T02:49:19.744Z,2.80
2022-07-30T02:51:53.926Z,2.60
2022-07-30T02:54:31.311Z,2.80
2022-07-30T02:57:05.592Z,2.10
2022-07-30T02:59:40.466Z,2.60
2022-07-30T03:02:14.606Z,2.80
2022-07-30T03:04:49.141Z,2.60
2022-07-30T03:07:23.230Z,3.40
2022-07-30T03:09:57.803Z,3.70
2022-07-30T03:12:32.846Z,2.70
2022-07-30T03:15:05.335Z,2.40
2022-07-30T03:17:44.663Z,3.00
2022-07-30T03:20:21.350Z,3.10
2022-07-30T03:22:58.403Z,2.40
2022-07-30T03:25:31.949Z,2.50
2022-07-30T03:28:06.702Z,3.00
2022-07-30T03:30:39.530Z,2.70
2022-07-30T03:33:12.269Z,2.50
2022-07-30T03:35:45.614Z,2.70
2022-07-30T03:38:18.494Z,2.80
2022-07-30T03:40:51.288Z,3.00
2022-07-30T03:43:33.191Z,2.50
2022-07-30T03:46:07.802Z,2.90
2022-07-30T03:48:42.624Z,3.00
2022-07-30T03:51:17.909Z,2.90
2022-07-30T03:53:51.581Z,2.80
2022-07-30T03:56:42.099Z,3.20
2022-07-30T03:59:22.984Z,2.70
2022-07-30T04:01:55.040Z,2.60
2022-07-30T04:04:43.901Z,2.40
2022-07-30T04:07:15.656Z,3.10
2022-07-30T04:09:47.401Z,2.60
2022-07-30T04:12:34.020Z,2.80
2022-07-30T04:16:15.846Z,2.70
2022-07-30T04:18:04.532Z,2.60
2022-07-30T04:20:42.274Z,2.50
2022-07-30T04:23:15.393Z,3.00
2022-07-30T04:25:49.814Z,3.20
2022-07-30T04:28:22.387Z,2.60
2022-07-30T04:30:54.517Z,3.10
2022-07-30T04:33:26.484Z,2.80
2022-07-30T04:36:16.387Z,2.50
2022-07-30T04:38:48.419Z,2.80
2022-07-30T04:41:20.213Z,2.80
2022-07-30T04:44:10.737Z,2.50
2022-07-30T04:46:47.647Z,2.70
2022-07-30T04:49:21.617Z,2.70
2022-07-30T04:51:55.854Z,2.30
2022-07-30T04:54:34.085Z,2.50
2022-07-30T04:57:08.022Z,2.80
2022-07-30T04:59:40.367Z,2.40
2022-07-30T05:02:14.099Z,2.80
2022-07-30T05:04:47.263Z,2.70
2022-07-30T05:07:22.568Z,3.00
2022-07-30T05:09:54.745Z,3.20
2022-07-30T05:12:37.548Z,2.60
2022-07-30T05:17:41.478Z,3.00
2022-07-30T05:20:14.784Z,2.80
2022-07-30T05:23:23.402Z,3.30
2022-07-30T05:26:27.639Z,3.40
2022-07-30T05:29:00.505Z,2.60
2022-07-30T05:31:47.185Z,3.30
2022-07-30T05:34:20.187Z,2.60
2022-07-30T05:36:52.220Z,3.20
2022-07-30T05:39:24.601Z,3.80
2022-07-30T05:42:22.654Z,3.10
2022-07-30T05:44:57.055Z,2.50
2022-07-30T05:47:28.913Z,3.20
2022-07-30T05:50:04.765Z,3.00
2022-07-30T05:52:37.070Z,2.90
2022-07-30T05:55:23.525Z,2.60
2022-07-30T05:58:08.617Z,3.00
2022-07-30T06:00:40.556Z,3.20
2022-07-30T06:03:12.854Z,2.70
2022-07-30T06:06:03.572Z,3.60
2022-07-30T06:08:35.852Z,3.40
2022-07-30T06:11:08.969Z,3.00
2022-07-30T06:13:41.518Z,2.80
2022-07-30T06:16:13.793Z,4.00
2022-07-30T06:18:45.609Z,3.10
2022-07-30T06:21:26.784Z,3.60
2022-07-30T06:26:46.194Z,3.30
2022-07-30T06:29:20.105Z,3.50
2022-07-30T06:31:52.906Z,3.20
2022-07-30T06:34:26.675Z,3.70
2022-07-30T06:36:59.226Z,3.40
2022-07-30T06:39:56.623Z,3.10
2022-07-30T06:42:24.634Z,3.30
2022-07-30T06:45:15.284Z,3.10
2022-07-30T06:48:09.271Z,3.30
2022-07-30T06:50:41.934Z,3.10
2022-07-30T06:53:13.730Z,3.20
2022-07-30T06:56:04.623Z,3.60
2022-07-30T06:58:44.601Z,3.20
2022-07-30T07:01:36.991Z,3.30
2022-07-30T07:04:09.383Z,3.50
2022-07-30T07:06:43.102Z,3.00
2022-07-30T07:09:15.756Z,3.40
2022-07-30T07:11:55.046Z,3.00
2022-07-30T07:14:27.889Z,3.40
2022-07-30T07:17:00.141Z,3.50
2022-07-30T07:20:01.647Z,3.00
2022-07-30T07:22:38.163Z,3.40
2022-07-30T07:25:11.600Z,3.10
2022-07-30T07:27:43.607Z,3.40
2022-07-30T07:30:35.875Z,3.40
2022-07-30T07:33:08.764Z,3.50
2022-07-30T07:35:49.167Z,3.70
2022-07-30T07:38:25.761Z,2.90
2022-07-30T07:43:28.941Z,3.40
2022-07-30T07:46:02.537Z,3.20
2022-07-30T07:48:36.149Z,3.40
2022-07-30T07:51:47.458Z,2.60
2022-07-30T07:54:22.498Z,3.70
2022-07-30T07:56:56.992Z,3.10
2022-07-30T07:59:40.592Z,3.20
2022-07-30T08:02:18.268Z,3.00
2022-07-30T08:05:12.516Z,3.90
2022-07-30T08:07:55.099Z,3.50
2022-07-30T08:10:36.374Z,3.20
2022-07-30T08:13:52.064Z,3.80
2022-07-30T08:16:43.235Z,3.00
2022-07-30T08:19:25.951Z,3.00
2022-07-30T08:22:20.749Z,3.30
2022-07-30T08:24:52.698Z,3.50
2022-07-30T08:27:24.535Z,3.30
2022-07-30T08:29:58.640Z,3.00
2022-07-30T08:32:30.567Z,4.00
2022-07-30T08:35:04.040Z,3.60
2022-07-30T08:37:36.622Z,3.90
2022-07-30T08:40:11.589Z,3.70
2022-07-30T08:42:53.785Z,3.60
2022-07-30T08:45:34.849Z,4.00
2022-07-30T08:48:26.432Z,5.20
2022-07-30T08:50:59.594Z,4.30
2022-07-30T08:56:22.535Z,6.20
2022-07-30T08:58:54.598Z,4.40
2022-07-30T09:01:26.855Z,4.20
2022-07-30T09:04:01.177Z,4.20
2022-07-30T09:06:33.108Z,4.00
2022-07-30T09:09:06.595Z,3.90
2022-07-30T09:11:39.650Z,3.20
2022-07-30T09:14:12.661Z,3.60
2022-07-30T09:16:44.907Z,3.30
2022-07-30T09:19:19.400Z,4.70
2022-07-30T09:21:59.886Z,3.40
2022-07-30T09:24:54.834Z,2.70
2022-07-30T09:27:51.307Z,3.20
2022-07-30T09:30:50.921Z,2.60
2022-07-30T09:33:42.792Z,2.60
2022-07-30T09:36:35.194Z,2.90
2022-07-30T09:39:34.925Z,2.40
2022-07-30T09:42:32.060Z,3.20
2022-07-30T09:45:11.441Z,3.20
2022-07-30T09:47:48.537Z,2.80
2022-07-30T09:50:30.553Z,2.40
2022-07-30T09:53:12.255Z,2.60
2022-07-30T09:55:46.064Z,3.60
2022-07-30T10:01:11.666Z,2.60
2022-07-30T10:03:58.571Z,3.30
2022-07-30T10:06:53.900Z,2.50
2022-07-30T10:09:37.771Z,2.70
2022-07-30T10:12:14.597Z,2.30
2022-07-30T10:14:54.263Z,2.40
2022-07-30T10:17:26.733Z,2.10
2022-07-30T10:20:21.468Z,3.30
2022-07-30T10:23:15.835Z,2.40
2022-07-30T10:26:07.953Z,2.10
2022-07-30T10:28:59.167Z,2.00
2022-07-30T10:34:23.568Z,2.40
2022-07-30T10:37:04.720Z,2.50
2022-07-30T10:39:47.137Z,2.10
2022-07-30T10:42:30.170Z,2.30
2022-07-30T10:45:18.405Z,2.00
2022-07-30T10:47:57.582Z,2.40
2022-07-30T10:50:31.033Z,2.40
2022-07-30T10:53:04.384Z,3.00
2022-07-30T10:58:15.856Z,2.20
2022-07-30T11:01:04.126Z,6.10
2022-07-30T11:03:40.644Z,3.30
2022-07-30T11:06:29.720Z,2.80
2022-07-30T11:09:01.971Z,1.80
2022-07-30T11:12:02.038Z,2.80
2022-07-30T11:18:12.649Z,2.30
2022-07-30T11:21:05.989Z,1.90
2022-07-30T11:23:42.994Z,1.90
2022-07-30T11:26:51.732Z,2.10
2022-07-30T11:29:50.954Z,1.50
2022-07-30T11:32:32.562Z,1.80
2022-07-30T11:35:20.422Z,1.60
2022-07-30T11:38:10.400Z,2.00
2022-07-30T11:41:12.016Z,2.10
2022-07-30T11:43:44.112Z,2.60
2022-07-30T11:46:18.019Z,1.50
2022-07-30T11:49:04.759Z,1.90
2022-07-30T11:51:44.448Z,2.30
2022-07-30T11:54:16.661Z,2.00
2022-07-30T11:57:03.652Z,2.60
2022-07-30T11:59:55.893Z,2.10
2022-07-30T12:02:30.993Z,1.60
2022-07-30T12:05:04.454Z,1.80
2022-07-30T12:07:36.329Z,2.10
2022-07-30T12:10:26.789Z,1.80
2022-07-30T12:13:13.022Z,1.80
2022-07-30T12:15:47.873Z,1.80
2022-07-30T12:18:28.920Z,2.00
2022-07-30T12:21:02.167Z,2.40
2022-07-30T12:23:34.298Z,2.40
2022-07-30T12:26:06.699Z,2.70
2022-07-30T12:28:39.891Z,2.00
2022-07-30T12:31:16.011Z,2.00
2022-07-30T12:33:48.548Z,1.90
2022-07-30T12:36:31.905Z,2.80
2022-07-30T12:39:06.772Z,2.80
2022-07-30T12:41:47.141Z,2.60
2022-07-30T12:44:37.068Z,2.70
2022-07-30T12:47:22.081Z,2.60
2022-07-30T12:49:54.628Z,2.60
2022-07-30T12:55:07.153Z,2.80
2022-07-30T12:57:57.959Z,4.20
2022-07-30T13:00:31.589Z,2.50
2022-07-30T13:03:03.266Z,2.60
2022-07-30T13:05:51.949Z,3.30
2022-07-30T13:08:51.213Z,3.10
2022-07-30T13:11:25.287Z,2.90
2022-07-30T13:13:57.022Z,2.80
2022-07-30T13:16:34.875Z,2.80
2022-07-30T13:19:11.340Z,3.20
2022-07-30T13:21:49.689Z,3.40
2022-07-30T13:24:22.446Z,3.00
2022-07-30T13:26:54.180Z,3.70
2022-07-30T13:29:26.067Z,3.50
2022-07-30T13:31:57.720Z,3.50
2022-07-30T13:34:29.444Z,3.20
2022-07-30T13:37:01.343Z,3.40
2022-07-30T13:39:33.173Z,3.30
2022-07-30T13:42:05.125Z,3.10
2022-07-30T13:44:36.927Z,3.40
2022-07-30T13:47:09.863Z,3.10
2022-07-30T13:49:49.354Z,3.70
2022-07-30T13:52:21.086Z,4.10
2022-07-30T13:54:53.741Z,3.30
2022-07-30T13:59:55.673Z,3.30
2022-07-30T14:02:27.915Z,4.30
2022-07-30T14:04:59.986Z,4.10
2022-07-30T14:07:31.792Z,3.40
2022-07-30T14:10:04.643Z,3.40
2022-07-30T14:12:37.862Z,3.60
2022-07-30T14:15:17.426Z,3.20
2022-07-30T14:17:56.130Z,3.90
2022-07-30T14:20:30.460Z,3.10
2022-07-30T14:23:02.258Z,3.10
2022-07-30T14:25:34.298Z,3.80
2022-07-30T14:28:06.503Z,3.30
2022-07-30T14:30:38.408Z,3.50
2022-07-30T14:33:10.316Z,3.00
2022-07-30T14:35:42.271Z,4.20
2022-07-30T14:38:13.972Z,3.00
2022-07-30T14:40:46.935Z,3.50
2022-07-30T14:43:19.658Z,3.90
2022-07-30T14:48:26.396Z,3.40
2022-07-30T14:51:15.868Z,3.10
2022-07-30T14:56:24.032Z,3.30
2022-07-30T14:58:55.693Z,3.30
2022-07-30T15:01:27.505Z,3.70
2022-07-30T15:03:59.663Z,3.80
2022-07-30T15:06:32.098Z,4.40
2022-07-30T15:09:03.835Z,3.40
2022-07-30T15:12:04.276Z,3.00
2022-07-30T15:14:28.424Z,3.60
2022-07-30T15:17:04.310Z,2.90
2022-07-30T15:19:36.447Z,3.00
2022-07-30T15:22:09.201Z,3.30
2022-07-30T15:27:11.685Z,4.00
2022-07-30T15:29:44.458Z,3.20
2022-07-30T15:32:16.843Z,2.90
2022-07-30T15:34:48.553Z,3.50
2022-07-30T15:37:20.317Z,5.20
2022-07-30T15:39:52.287Z,11.10
2022-07-30T15:42:27.421Z,8.70
2022-07-30T15:45:16.851Z,5.80
2022-07-30T15:47:50.392Z,3.30
2022-07-30T15:50:22.325Z,3.90
2022-07-30T15:52:54.421Z,7.30
2022-07-30T15:55:27.022Z,6.30
2022-07-30T16:00:29.906Z,3.70
2022-07-30T16:03:03.150Z,4.80
2022-07-30T16:05:51.617Z,6.20
2022-07-30T16:08:24.557Z,3.60
2022-07-30T16:10:56.675Z,3.40
2022-07-30T16:13:29.182Z,4.40
2022-07-30T16:16:01.157Z,3.50
2022-07-30T16:18:33.614Z,4.10
2022-07-30T16:21:06.163Z,3.90
2022-07-30T16:26:11.878Z,3.60
2022-07-30T16:28:43.900Z,3.70
2022-07-30T16:31:16.400Z,3.60
2022-07-30T16:33:48.591Z,4.10
2022-07-30T16:38:51.441Z,4.80
2022-07-30T16:41:24.148Z,4.20
2022-07-30T16:43:56.874Z,4.20
2022-07-30T16:46:29.601Z,4.70
2022-07-30T16:49:01.478Z,3.90
2022-07-30T16:51:33.652Z,3.90
2022-07-30T16:54:07.585Z,4.30
2022-07-30T16:56:39.243Z,4.90
2022-07-30T16:59:13.809Z,4.40
2022-07-30T17:01:45.860Z,6.30
2022-07-30T17:04:17.770Z,4.60
2022-07-30T17:06:51.512Z,6.20
2022-07-30T17:09:23.271Z,4.80
2022-07-30T17:11:55.033Z,4.90
2022-07-30T17:14:31.145Z,4.40
2022-07-30T17:17:03.211Z,4.90
2022-07-30T17:19:34.821Z,4.40
2022-07-30T17:22:08.558Z,5.60
2022-07-30T17:24:40.567Z,4.70
2022-07-30T17:27:12.363Z,6.40
2022-07-30T17:29:50.192Z,6.20
2022-07-30T17:32:23.395Z,5.90
2022-07-30T17:34:55.966Z,5.20
2022-07-30T17:37:27.690Z,7.00
2022-07-30T17:40:28.257Z,4.70
2022-07-30T17:42:51.359Z,4.80
2022-07-30T17:45:23.263Z,4.90
2022-07-30T17:47:55.107Z,5.00
2022-07-30T17:50:27.199Z,8.40
2022-07-30T17:52:59.148Z,8.40
2022-07-30T17:55:34.852Z,6.70
2022-07-30T17:58:07.610Z,5.80
2022-07-30T18:00:41.207Z,5.40
2022-07-30T18:03:12.932Z,4.80
2022-07-30T18:05:44.823Z,5.10
2022-07-30T18:08:16.582Z,5.20
2022-07-30T18:10:48.457Z,4.30
2022-07-30T18:13:27.061Z,5.50
2022-07-30T18:15:59.448Z,4.60
2022-07-30T18:18:31.444Z,4.90
2022-07-30T18:21:03.945Z,6.30
2022-07-30T18:23:36.281Z,4.80
2022-07-30T18:26:10.639Z,4.80
2022-07-30T18:28:43.422Z,5.30
2022-07-30T18:31:15.607Z,5.30
2022-07-30T18:33:49.465Z,6.00
2022-07-30T18:36:21.608Z,5.40
2022-07-30T18:38:54.040Z,6.40
2022-07-30T18:43:56.996Z,6.70
2022-07-30T18:49:15.456Z,5.30
2022-07-30T18:51:54.584Z,5.40
2022-07-30T18:54:28.924Z,6.20
2022-07-30T18:57:01.350Z,6.30
2022-07-30T18:59:34.538Z,6.50
2022-07-30T19:02:08.361Z,7.10
2022-07-30T19:04:40.913Z,6.80
2022-07-30T19:07:14.386Z,7.20
2022-07-30T19:09:46.840Z,8.10
2022-07-30T19:12:20.394Z,8.30
2022-07-30T19:14:52.990Z,13.00
2022-07-30T19:17:45.202Z,12.20
2022-07-30T19:20:16.784Z,6.70
2022-07-30T19:22:50.350Z,6.70
2022-07-30T19:25:23.129Z,6.20
2022-07-30T19:27:55.320Z,7.10
2022-07-30T19:30:28.252Z,6.10
2022-07-30T19:33:05.748Z,5.80
2022-07-30T19:35:37.817Z,6.50
2022-07-30T19:38:14.323Z,6.40
2022-07-30T19:40:53.986Z,6.40
2022-07-30T19:43:25.736Z,6.60
2022-07-30T19:46:00.459Z,7.70
2022-07-30T19:48:36.073Z,6.90
2022-07-30T19:51:20.747Z,6.90
2022-07-30T19:53:53.124Z,8.20
2022-07-30T19:56:25.924Z,7.20
2022-07-30T20:01:41.301Z,6.80
2022-07-30T20:04:14.298Z,6.90
2022-07-30T20:06:46.439Z,7.20
2022-07-30T20:09:18.655Z,7.90
2022-07-30T20:11:51.014Z,9.80
2022-07-30T20:14:23.978Z,8.00
2022-07-30T20:16:58.183Z,7.80
2022-07-30T20:19:36.145Z,8.30
2022-07-30T20:22:29.063Z,7.90
2022-07-30T20:25:02.669Z,7.10
2022-07-30T20:27:38.730Z,8.00
2022-07-30T20:30:13.867Z,7.30
2022-07-30T20:32:47.016Z,7.40
2022-07-30T20:35:19.933Z,7.70
2022-07-30T20:37:55.318Z,7.30
2022-07-30T20:40:28.609Z,7.00
2022-07-30T20:43:02.402Z,9.30
2022-07-30T20:45:37.999Z,7.80
2022-07-30T20:48:16.922Z,8.20
2022-07-30T20:50:49.463Z,7.00
2022-07-30T20:53:23.079Z,6.30
2022-07-30T20:55:55.131Z,7.10
2022-07-30T20:58:26.949Z,6.50
2022-07-30T21:00:59.632Z,6.20
2022-07-30T21:03:31.747Z,7.20
2022-07-30T21:08:34.185Z,6.00
2022-07-30T21:13:42.648Z,6.70
2022-07-30T21:16:16.398Z,5.50
2022-07-30T21:18:50.933Z,5.00
2022-07-30T21:21:30.815Z,5.30
2022-07-30T21:24:15.363Z,5.50
2022-07-30T21:26:50.614Z,6.00
2022-07-30T21:29:23.034Z,5.70
2022-07-30T21:32:01.864Z,5.70
2022-07-30T21:34:41.954Z,5.90
2022-07-30T21:37:15.740Z,5.70
2022-07-30T21:39:47.878Z,6.40
2022-07-30T21:42:26.092Z,6.30
2022-07-30T21:45:02.853Z,6.30
2022-07-30T21:50:05.694Z,5.60
2022-07-30T21:52:40.936Z,5.70
2022-07-30T21:55:13.750Z,6.00
2022-07-30T21:57:45.421Z,6.70
2022-07-30T22:00:22.918Z,6.90
2022-07-30T22:02:55.699Z,7.00
2022-07-30T22:05:38.782Z,6.40
2022-07-30T22:08:13.285Z,7.40
2022-07-30T22:10:48.575Z,7.20
2022-07-30T22:13:23.250Z,7.00
2022-07-30T22:15:55.459Z,7.00
2022-07-30T22:18:27.155Z,7.40
2022-07-30T22:20:59.098Z,7.10
2022-07-30T22:23:30.753Z,7.40
2022-07-30T22:26:03.293Z,7.60
2022-07-30T22:28:35.722Z,6.80
2022-07-30T22:31:14.914Z,7.90
2022-07-30T22:33:49.784Z,7.50
2022-07-30T22:36:24.683Z,7.50
2022-07-30T22:38:58.740Z,7.20
2022-07-30T22:41:30.959Z,6.90
2022-07-30T22:44:02.646Z,7.40
2022-07-30T22:46:35.575Z,7.50
2022-07-30T22:49:08.824Z,7.70
2022-07-30T22:52:20.922Z,7.30
2022-07-30T22:54:50.925Z,7.30
2022-07-30T22:57:23.497Z,6.40
2022-07-30T23:00:00.246Z,7.30
2022-07-30T23:02:32.758Z,6.90
2022-07-30T23:05:06.361Z,7.40
2022-07-30T23:07:39.591Z,7.30
2022-07-30T23:10:18.660Z,7.60
2022-07-30T23:12:53.697Z,7.90
2022-07-30T23:15:25.621Z,7.70
2022-07-30T23:17:57.387Z,8.20
2022-07-30T23:20:32.013Z,8.80
2022-07-30T23:23:04.957Z,7.90
2022-07-30T23:25:39.123Z,8.40
2022-07-30T23:28:11.552Z,8.80
2022-07-30T23:30:43.365Z,8.70
2022-07-30T23:33:16.064Z,9.20
2022-07-30T23:35:48.582Z,9.20
2022-07-30T23:38:20.300Z,8.50
2022-07-30T23:40:52.460Z,9.10
2022-07-30T23:43:24.587Z,9.60
2022-07-30T23:45:56.312Z,10.60
2022-07-30T23:48:28.149Z,9.30
2022-07-30T23:50:59.814Z,10.80
2022-07-30T23:53:31.512Z,10.40
2022-07-30T23:56:03.481Z,10.60
2022-07-30T23:58:35.290Z,10.70
